sensor_id;sensor_type;location;lat;lon;timestamp;temperature;humidity
11132;DHT22;5620;53.570;9.718;2023-06-22T00:02:19;19.40;1.00
11132;DHT22;5620;53.570;9.718;2023-06-22T00:04:44;19.40;1.00
11132;DHT22;5620;53.570;9.718;2023-06-22T00:07:11;19.50;1.00
11132;DHT22;5620;53.570;9.718;2023-06-22T00:09:37;19.50;1.00
11132;DHT22;5620;53.570;9.718;2023-06-22T00:12:03;19.60;1.00
11132;DHT22;5620;53.570;9.718;2023-06-22T00:14:29;19.70;1.00
11132;DHT22;5620;53.570;9.718;2023-06-22T00:16:59;19.80;1.00
11132;DHT22;5620;53.570;9.718;2023-06-22T00:19:24;19.80;1.00
11132;DHT22;5620;53.570;9.718;2023-06-22T00:21:50;19.80;1.00
11132;DHT22;5620;53.570;9.718;2023-06-22T00:24:18;19.70;1.00
11132;DHT22;5620;53.570;9.718;2023-06-22T00:26:44;19.70;1.00
11132;DHT22;5620;53.570;9.718;2023-06-22T00:29:09;19.60;1.00
11132;DHT22;5620;53.570;9.718;2023-06-22T00:31:35;19.50;1.00
11132;DHT22;5620;53.570;9.718;2023-06-22T00:34:02;19.40;1.00
11132;DHT22;5620;53.570;9.718;2023-06-22T00:36:29;19.30;1.00
11132;DHT22;5620;53.570;9.718;2023-06-22T00:38:56;19.20;1.00
11132;DHT22;5620;53.570;9.718;2023-06-22T00:41:22;19.20;1.00
11132;DHT22;5620;53.570;9.718;2023-06-22T00:43:48;19.10;1.00
11132;DHT22;5620;53.570;9.718;2023-06-22T00:46:13;19.10;1.00
11132;DHT22;5620;53.570;9.718;2023-06-22T00:48:40;19.10;1.00
11132;DHT22;5620;53.570;9.718;2023-06-22T00:51:06;19.10;1.00
11132;DHT22;5620;53.570;9.718;2023-06-22T00:53:33;19.10;1.00
11132;DHT22;5620;53.570;9.718;2023-06-22T00:56:01;19.10;1.00
11132;DHT22;5620;53.570;9.718;2023-06-22T00:58:29;19.10;1.00
11132;DHT22;5620;53.570;9.718;2023-06-22T01:00:56;19.00;1.00
11132;DHT22;5620;53.570;9.718;2023-06-22T01:03:23;19.00;1.00
11132;DHT22;5620;53.570;9.718;2023-06-22T01:05:50;19.00;1.00
11132;DHT22;5620;53.570;9.718;2023-06-22T01:08:42;18.90;22.80
11132;DHT22;5620;53.570;9.718;2023-06-22T01:11:36;18.90;67.30
11132;DHT22;5620;53.570;9.718;2023-06-22T01:14:42;18.90;76.00
11132;DHT22;5620;53.570;9.718;2023-06-22T01:17:09;18.90;78.10
11132;DHT22;5620;53.570;9.718;2023-06-22T01:19:51;18.80;75.40
11132;DHT22;5620;53.570;9.718;2023-06-22T01:22:24;18.80;95.00
11132;DHT22;5620;53.570;9.718;2023-06-22T01:27:40;18.80;99.90
11132;DHT22;5620;53.570;9.718;2023-06-22T01:30:14;18.80;99.90
11132;DHT22;5620;53.570;9.718;2023-06-22T01:32:41;18.80;99.90
11132;DHT22;5620;53.570;9.718;2023-06-22T01:35:10;18.80;99.90
11132;DHT22;5620;53.570;9.718;2023-06-22T01:37:38;18.90;99.90
11132;DHT22;5620;53.570;9.718;2023-06-22T01:40:06;18.90;99.90
11132;DHT22;5620;53.570;9.718;2023-06-22T01:42:34;18.90;99.90
11132;DHT22;5620;53.570;9.718;2023-06-22T01:45:03;18.90;99.90
11132;DHT22;5620;53.570;9.718;2023-06-22T01:47:34;18.90;99.90
11132;DHT22;5620;53.570;9.718;2023-06-22T01:50:01;18.80;99.90
11132;DHT22;5620;53.570;9.718;2023-06-22T01:52:28;18.80;99.90
11132;DHT22;5620;53.570;9.718;2023-06-22T01:54:54;18.80;99.90
11132;DHT22;5620;53.570;9.718;2023-06-22T01:57:20;18.70;99.90
11132;DHT22;5620;53.570;9.718;2023-06-22T02:02:20;18.70;99.90
11132;DHT22;5620;53.570;9.718;2023-06-22T02:05:05;18.70;99.90
11132;DHT22;5620;53.570;9.718;2023-06-22T02:07:49;18.60;1.00
11132;DHT22;5620;53.570;9.718;2023-06-22T02:10:20;18.60;1.00
11132;DHT22;5620;53.570;9.718;2023-06-22T02:12:52;18.50;1.00
11132;DHT22;5620;53.570;9.718;2023-06-22T02:15:21;18.50;1.00
11132;DHT22;5620;53.570;9.718;2023-06-22T02:17:48;18.50;1.00
11132;DHT22;5620;53.570;9.718;2023-06-22T02:20:18;18.50;1.00
11132;DHT22;5620;53.570;9.718;2023-06-22T02:22:43;18.40;1.00
11132;DHT22;5620;53.570;9.718;2023-06-22T02:25:09;18.40;1.00
11132;DHT22;5620;53.570;9.718;2023-06-22T02:27:35;18.40;1.00
11132;DHT22;5620;53.570;9.718;2023-06-22T02:30:00;18.30;1.00
11132;DHT22;5620;53.570;9.718;2023-06-22T02:32:28;18.30;1.00
11132;DHT22;5620;53.570;9.718;2023-06-22T02:34:54;18.30;1.00
11132;DHT22;5620;53.570;9.718;2023-06-22T02:37:19;18.20;1.00
11132;DHT22;5620;53.570;9.718;2023-06-22T02:39:45;18.20;1.00
11132;DHT22;5620;53.570;9.718;2023-06-22T02:42:11;18.20;18.60
11132;DHT22;5620;53.570;9.718;2023-06-22T02:44:37;18.10;55.40
11132;DHT22;5620;53.570;9.718;2023-06-22T02:47:03;18.10;82.50
11132;DHT22;5620;53.570;9.718;2023-06-22T02:49:30;18.10;99.90
11132;DHT22;5620;53.570;9.718;2023-06-22T02:51:57;18.00;99.90
11132;DHT22;5620;53.570;9.718;2023-06-22T02:54:24;18.00;99.90
11132;DHT22;5620;53.570;9.718;2023-06-22T02:56:51;17.90;99.90
11132;DHT22;5620;53.570;9.718;2023-06-22T02:59:17;17.90;99.90
11132;DHT22;5620;53.570;9.718;2023-06-22T03:01:43;17.90;99.90
11132;DHT22;5620;53.570;9.718;2023-06-22T03:04:12;17.90;99.90
11132;DHT22;5620;53.570;9.718;2023-06-22T03:06:38;17.80;99.90
11132;DHT22;5620;53.570;9.718;2023-06-22T03:09:04;17.80;99.90
11132;DHT22;5620;53.570;9.718;2023-06-22T03:11:31;17.80;99.90
11132;DHT22;5620;53.570;9.718;2023-06-22T03:14:01;17.80;99.90
11132;DHT22;5620;53.570;9.718;2023-06-22T03:16:28;17.80;1.00
11132;DHT22;5620;53.570;9.718;2023-06-22T03:18:56;17.80;1.00
11132;DHT22;5620;53.570;9.718;2023-06-22T03:21:29;17.80;1.00
11132;DHT22;5620;53.570;9.718;2023-06-22T03:23:57;17.80;1.00
11132;DHT22;5620;53.570;9.718;2023-06-22T03:26:22;17.80;1.00
11132;DHT22;5620;53.570;9.718;2023-06-22T03:28:48;17.80;1.00
11132;DHT22;5620;53.570;9.718;2023-06-22T03:31:15;17.80;1.00
11132;DHT22;5620;53.570;9.718;2023-06-22T03:33:41;17.90;1.00
11132;DHT22;5620;53.570;9.718;2023-06-22T03:36:09;17.90;1.00
11132;DHT22;5620;53.570;9.718;2023-06-22T03:38:35;18.00;1.00
11132;DHT22;5620;53.570;9.718;2023-06-22T03:41:01;18.00;1.00
11132;DHT22;5620;53.570;9.718;2023-06-22T03:43:27;18.10;1.00
11132;DHT22;5620;53.570;9.718;2023-06-22T03:45:53;18.20;1.00
11132;DHT22;5620;53.570;9.718;2023-06-22T03:48:18;18.30;1.00
11132;DHT22;5620;53.570;9.718;2023-06-22T03:50:45;18.30;1.00
11132;DHT22;5620;53.570;9.718;2023-06-22T03:53:11;18.40;1.00
11132;DHT22;5620;53.570;9.718;2023-06-22T03:55:36;18.50;1.00
11132;DHT22;5620;53.570;9.718;2023-06-22T03:58:02;18.60;1.00
11132;DHT22;5620;53.570;9.718;2023-06-22T04:00:29;18.60;1.00
11132;DHT22;5620;53.570;9.718;2023-06-22T04:02:56;18.70;1.00
11132;DHT22;5620;53.570;9.718;2023-06-22T04:05:22;18.80;99.90
11132;DHT22;5620;53.570;9.718;2023-06-22T04:07:47;18.90;99.90
11132;DHT22;5620;53.570;9.718;2023-06-22T04:10:13;18.90;99.90
11132;DHT22;5620;53.570;9.718;2023-06-22T04:12:39;19.00;99.90
11132;DHT22;5620;53.570;9.718;2023-06-22T04:15:06;19.00;99.90
11132;DHT22;5620;53.570;9.718;2023-06-22T04:17:32;19.10;99.90
11132;DHT22;5620;53.570;9.718;2023-06-22T04:19:59;19.20;99.90
11132;DHT22;5620;53.570;9.718;2023-06-22T04:22:27;19.20;86.40
11132;DHT22;5620;53.570;9.718;2023-06-22T04:24:54;19.30;29.50
11132;DHT22;5620;53.570;9.718;2023-06-22T04:27:19;19.40;1.00
11132;DHT22;5620;53.570;9.718;2023-06-22T04:29:45;19.50;1.00
11132;DHT22;5620;53.570;9.718;2023-06-22T04:32:10;19.60;1.00
11132;DHT22;5620;53.570;9.718;2023-06-22T04:34:37;19.70;1.00
11132;DHT22;5620;53.570;9.718;2023-06-22T04:37:02;19.80;1.00
11132;DHT22;5620;53.570;9.718;2023-06-22T04:39:29;20.00;1.00
11132;DHT22;5620;53.570;9.718;2023-06-22T04:41:56;20.10;1.00
11132;DHT22;5620;53.570;9.718;2023-06-22T04:44:21;20.30;99.90
11132;DHT22;5620;53.570;9.718;2023-06-22T04:46:47;20.40;99.90
11132;DHT22;5620;53.570;9.718;2023-06-22T04:49:12;20.60;99.90
11132;DHT22;5620;53.570;9.718;2023-06-22T04:51:43;20.70;99.90
11132;DHT22;5620;53.570;9.718;2023-06-22T04:54:09;20.80;99.90
11132;DHT22;5620;53.570;9.718;2023-06-22T04:56:37;20.80;99.90
11132;DHT22;5620;53.570;9.718;2023-06-22T04:59:04;20.90;99.90
11132;DHT22;5620;53.570;9.718;2023-06-22T05:01:30;20.90;81.80
11132;DHT22;5620;53.570;9.718;2023-06-22T05:03:55;21.00;65.80
11132;DHT22;5620;53.570;9.718;2023-06-22T05:06:25;21.20;13.70
11132;DHT22;5620;53.570;9.718;2023-06-22T05:08:54;21.30;1.00
11132;DHT22;5620;53.570;9.718;2023-06-22T05:11:20;21.40;1.00
11132;DHT22;5620;53.570;9.718;2023-06-22T05:13:45;21.40;1.00
11132;DHT22;5620;53.570;9.718;2023-06-22T05:16:12;21.50;1.00
11132;DHT22;5620;53.570;9.718;2023-06-22T05:18:37;21.60;1.00
11132;DHT22;5620;53.570;9.718;2023-06-22T05:21:03;21.70;1.00
11132;DHT22;5620;53.570;9.718;2023-06-22T05:23:28;21.80;1.00
11132;DHT22;5620;53.570;9.718;2023-06-22T05:25:55;21.80;1.00
11132;DHT22;5620;53.570;9.718;2023-06-22T05:28:21;21.80;1.00
11132;DHT22;5620;53.570;9.718;2023-06-22T05:30:47;21.90;1.00
11132;DHT22;5620;53.570;9.718;2023-06-22T05:33:12;22.00;99.90
11132;DHT22;5620;53.570;9.718;2023-06-22T05:35:39;22.10;99.90
11132;DHT22;5620;53.570;9.718;2023-06-22T05:38:05;22.20;99.90
11132;DHT22;5620;53.570;9.718;2023-06-22T05:40:30;22.30;99.90
11132;DHT22;5620;53.570;9.718;2023-06-22T05:42:57;22.30;99.90
11132;DHT22;5620;53.570;9.718;2023-06-22T05:45:23;22.40;99.90
11132;DHT22;5620;53.570;9.718;2023-06-22T05:47:48;22.60;99.90
11132;DHT22;5620;53.570;9.718;2023-06-22T05:50:15;22.90;99.90
11132;DHT22;5620;53.570;9.718;2023-06-22T05:52:41;23.00;99.90
11132;DHT22;5620;53.570;9.718;2023-06-22T05:55:07;23.20;99.90
11132;DHT22;5620;53.570;9.718;2023-06-22T05:57:33;23.30;99.90
11132;DHT22;5620;53.570;9.718;2023-06-22T05:59:58;23.30;99.90
11132;DHT22;5620;53.570;9.718;2023-06-22T06:02:25;23.30;99.90
11132;DHT22;5620;53.570;9.718;2023-06-22T06:04:52;23.30;99.90
11132;DHT22;5620;53.570;9.718;2023-06-22T06:07:17;23.40;99.90
11132;DHT22;5620;53.570;9.718;2023-06-22T06:09:45;23.40;99.90
11132;DHT22;5620;53.570;9.718;2023-06-22T06:12:11;23.40;99.90
11132;DHT22;5620;53.570;9.718;2023-06-22T06:14:36;23.50;96.50
11132;DHT22;5620;53.570;9.718;2023-06-22T06:17:03;23.50;89.10
11132;DHT22;5620;53.570;9.718;2023-06-22T06:19:30;23.50;73.20
11132;DHT22;5620;53.570;9.718;2023-06-22T06:21:56;23.50;63.80
11132;DHT22;5620;53.570;9.718;2023-06-22T06:24:23;23.40;60.60
11132;DHT22;5620;53.570;9.718;2023-06-22T06:26:49;23.40;59.40
11132;DHT22;5620;53.570;9.718;2023-06-22T06:29:15;23.20;50.90
11132;DHT22;5620;53.570;9.718;2023-06-22T06:31:43;23.00;45.30
11132;DHT22;5620;53.570;9.718;2023-06-22T06:34:08;22.90;47.20
11132;DHT22;5620;53.570;9.718;2023-06-22T06:36:34;22.80;50.60
11132;DHT22;5620;53.570;9.718;2023-06-22T06:39:00;22.60;54.60
11132;DHT22;5620;53.570;9.718;2023-06-22T06:41:26;22.60;56.40
11132;DHT22;5620;53.570;9.718;2023-06-22T06:43:52;22.50;58.60
11132;DHT22;5620;53.570;9.718;2023-06-22T06:46:20;22.50;55.60
11132;DHT22;5620;53.570;9.718;2023-06-22T06:48:46;22.50;56.00
11132;DHT22;5620;53.570;9.718;2023-06-22T06:51:13;22.50;58.30
11132;DHT22;5620;53.570;9.718;2023-06-22T06:53:41;22.50;60.00
11132;DHT22;5620;53.570;9.718;2023-06-22T06:56:09;22.60;55.60
11132;DHT22;5620;53.570;9.718;2023-06-22T06:58:35;22.80;49.40
11132;DHT22;5620;53.570;9.718;2023-06-22T07:01:00;22.90;40.20
11132;DHT22;5620;53.570;9.718;2023-06-22T07:03:27;22.90;34.40
11132;DHT22;5620;53.570;9.718;2023-06-22T07:05:53;22.90;30.50
11132;DHT22;5620;53.570;9.718;2023-06-22T07:08:18;23.00;26.90
11132;DHT22;5620;53.570;9.718;2023-06-22T07:10:45;23.20;20.80
11132;DHT22;5620;53.570;9.718;2023-06-22T07:13:13;23.30;13.40
11132;DHT22;5620;53.570;9.718;2023-06-22T07:15:41;23.40;3.80
11132;DHT22;5620;53.570;9.718;2023-06-22T07:18:08;23.60;1.00
11132;DHT22;5620;53.570;9.718;2023-06-22T07:20:33;23.80;1.00
11132;DHT22;5620;53.570;9.718;2023-06-22T07:23:00;24.00;1.00
11132;DHT22;5620;53.570;9.718;2023-06-22T07:25:26;24.20;1.00
11132;DHT22;5620;53.570;9.718;2023-06-22T07:28:06;24.30;1.00
11132;DHT22;5620;53.570;9.718;2023-06-22T07:30:33;24.50;1.00
11132;DHT22;5620;53.570;9.718;2023-06-22T07:33:02;24.50;1.00
11132;DHT22;5620;53.570;9.718;2023-06-22T07:35:28;24.60;1.00
11132;DHT22;5620;53.570;9.718;2023-06-22T07:37:55;24.70;1.00
11132;DHT22;5620;53.570;9.718;2023-06-22T07:40:22;24.70;1.00
11132;DHT22;5620;53.570;9.718;2023-06-22T07:42:49;25.00;1.00
11132;DHT22;5620;53.570;9.718;2023-06-22T07:45:15;25.40;1.00
11132;DHT22;5620;53.570;9.718;2023-06-22T07:47:42;25.80;1.00
11132;DHT22;5620;53.570;9.718;2023-06-22T07:50:09;26.20;1.00
11132;DHT22;5620;53.570;9.718;2023-06-22T07:52:36;26.50;1.00
11132;DHT22;5620;53.570;9.718;2023-06-22T07:55:02;26.60;1.00
11132;DHT22;5620;53.570;9.718;2023-06-22T07:57:28;26.60;1.00
11132;DHT22;5620;53.570;9.718;2023-06-22T07:59:55;26.50;1.00
11132;DHT22;5620;53.570;9.718;2023-06-22T08:02:22;26.40;1.00
11132;DHT22;5620;53.570;9.718;2023-06-22T08:04:51;26.40;1.00
11132;DHT22;5620;53.570;9.718;2023-06-22T08:07:19;26.40;1.00
11132;DHT22;5620;53.570;9.718;2023-06-22T08:09:47;26.40;1.00
11132;DHT22;5620;53.570;9.718;2023-06-22T08:12:13;26.40;1.00
11132;DHT22;5620;53.570;9.718;2023-06-22T08:14:39;26.30;1.00
11132;DHT22;5620;53.570;9.718;2023-06-22T08:17:07;26.30;1.00
11132;DHT22;5620;53.570;9.718;2023-06-22T08:19:36;26.30;1.00
11132;DHT22;5620;53.570;9.718;2023-06-22T08:22:03;26.40;1.00
11132;DHT22;5620;53.570;9.718;2023-06-22T08:24:30;26.20;1.00
11132;DHT22;5620;53.570;9.718;2023-06-22T08:26:58;26.10;1.00
11132;DHT22;5620;53.570;9.718;2023-06-22T08:29:24;26.10;1.00
11132;DHT22;5620;53.570;9.718;2023-06-22T08:31:50;26.10;1.00
11132;DHT22;5620;53.570;9.718;2023-06-22T08:34:16;26.20;1.00
11132;DHT22;5620;53.570;9.718;2023-06-22T08:36:43;26.30;1.00
11132;DHT22;5620;53.570;9.718;2023-06-22T08:39:10;26.40;1.00
11132;DHT22;5620;53.570;9.718;2023-06-22T08:41:37;26.30;1.00
11132;DHT22;5620;53.570;9.718;2023-06-22T08:44:03;26.30;1.00
11132;DHT22;5620;53.570;9.718;2023-06-22T08:46:30;26.20;1.00
11132;DHT22;5620;53.570;9.718;2023-06-22T08:48:57;26.30;1.00
11132;DHT22;5620;53.570;9.718;2023-06-22T08:51:23;26.30;1.00
11132;DHT22;5620;53.570;9.718;2023-06-22T08:53:49;26.40;1.00
11132;DHT22;5620;53.570;9.718;2023-06-22T08:56:16;26.40;1.00
11132;DHT22;5620;53.570;9.718;2023-06-22T08:58:46;26.50;1.00
11132;DHT22;5620;53.570;9.718;2023-06-22T09:01:12;26.60;1.00
11132;DHT22;5620;53.570;9.718;2023-06-22T09:03:38;26.50;1.00
11132;DHT22;5620;53.570;9.718;2023-06-22T09:06:04;26.50;1.00
11132;DHT22;5620;53.570;9.718;2023-06-22T09:08:31;26.40;1.00
11132;DHT22;5620;53.570;9.718;2023-06-22T09:10:58;26.40;1.00
11132;DHT22;5620;53.570;9.718;2023-06-22T09:13:24;26.40;1.00
11132;DHT22;5620;53.570;9.718;2023-06-22T09:15:50;26.40;1.00
11132;DHT22;5620;53.570;9.718;2023-06-22T09:18:18;26.40;1.00
11132;DHT22;5620;53.570;9.718;2023-06-22T09:20:45;26.30;1.00
11132;DHT22;5620;53.570;9.718;2023-06-22T09:23:14;26.30;1.00
11132;DHT22;5620;53.570;9.718;2023-06-22T09:25:39;26.40;1.00
11132;DHT22;5620;53.570;9.718;2023-06-22T09:28:06;26.40;1.00
11132;DHT22;5620;53.570;9.718;2023-06-22T09:30:32;26.40;1.00
11132;DHT22;5620;53.570;9.718;2023-06-22T09:32:59;26.50;1.00
11132;DHT22;5620;53.570;9.718;2023-06-22T09:35:27;26.60;1.00
11132;DHT22;5620;53.570;9.718;2023-06-22T09:37:54;26.70;1.00
11132;DHT22;5620;53.570;9.718;2023-06-22T09:40:20;26.80;1.00
11132;DHT22;5620;53.570;9.718;2023-06-22T09:42:45;26.90;1.00
11132;DHT22;5620;53.570;9.718;2023-06-22T09:45:12;27.10;1.00
11132;DHT22;5620;53.570;9.718;2023-06-22T09:47:38;27.20;1.00
11132;DHT22;5620;53.570;9.718;2023-06-22T09:50:06;27.30;1.00
11132;DHT22;5620;53.570;9.718;2023-06-22T09:52:32;27.40;1.00
11132;DHT22;5620;53.570;9.718;2023-06-22T09:54:57;27.40;1.00
11132;DHT22;5620;53.570;9.718;2023-06-22T09:57:26;27.50;1.00
11132;DHT22;5620;53.570;9.718;2023-06-22T09:59:51;27.70;1.00
11132;DHT22;5620;53.570;9.718;2023-06-22T10:02:18;27.90;1.00
11132;DHT22;5620;53.570;9.718;2023-06-22T10:04:46;28.10;1.00
11132;DHT22;5620;53.570;9.718;2023-06-22T10:07:12;28.30;1.00
11132;DHT22;5620;53.570;9.718;2023-06-22T10:09:37;28.50;1.00
11132;DHT22;5620;53.570;9.718;2023-06-22T10:12:04;28.60;1.00
11132;DHT22;5620;53.570;9.718;2023-06-22T10:14:31;28.60;1.00
11132;DHT22;5620;53.570;9.718;2023-06-22T10:16:59;28.90;1.00
11132;DHT22;5620;53.570;9.718;2023-06-22T10:19:25;29.20;1.00
11132;DHT22;5620;53.570;9.718;2023-06-22T10:21:51;29.50;1.00
11132;DHT22;5620;53.570;9.718;2023-06-22T10:24:16;29.90;1.00
11132;DHT22;5620;53.570;9.718;2023-06-22T10:26:52;30.40;1.00
11132;DHT22;5620;53.570;9.718;2023-06-22T10:29:18;31.00;1.00
11132;DHT22;5620;53.570;9.718;2023-06-22T10:31:46;31.60;1.00
11132;DHT22;5620;53.570;9.718;2023-06-22T10:34:12;32.30;1.00
11132;DHT22;5620;53.570;9.718;2023-06-22T10:36:38;33.10;1.00
11132;DHT22;5620;53.570;9.718;2023-06-22T10:39:05;33.70;1.00
11132;DHT22;5620;53.570;9.718;2023-06-22T10:41:31;34.00;1.00
11132;DHT22;5620;53.570;9.718;2023-06-22T10:43:58;34.60;1.00
11132;DHT22;5620;53.570;9.718;2023-06-22T10:46:26;35.20;1.00
11132;DHT22;5620;53.570;9.718;2023-06-22T10:48:53;35.70;1.00
11132;DHT22;5620;53.570;9.718;2023-06-22T10:51:18;35.90;99.90
11132;DHT22;5620;53.570;9.718;2023-06-22T10:53:44;35.80;99.90
11132;DHT22;5620;53.570;9.718;2023-06-22T10:56:10;35.40;99.90
11132;DHT22;5620;53.570;9.718;2023-06-22T10:58:36;34.90;99.90
11132;DHT22;5620;53.570;9.718;2023-06-22T11:01:03;34.70;99.90
11132;DHT22;5620;53.570;9.718;2023-06-22T11:03:29;34.90;99.90
11132;DHT22;5620;53.570;9.718;2023-06-22T11:05:54;35.10;99.90
11132;DHT22;5620;53.570;9.718;2023-06-22T11:08:21;35.50;99.90
11132;DHT22;5620;53.570;9.718;2023-06-22T11:10:49;36.20;99.90
11132;DHT22;5620;53.570;9.718;2023-06-22T11:13:14;37.40;99.90
11132;DHT22;5620;53.570;9.718;2023-06-22T11:15:40;38.60;99.90
11132;DHT22;5620;53.570;9.718;2023-06-22T11:18:07;40.20;99.90
11132;DHT22;5620;53.570;9.718;2023-06-22T11:20:34;41.40;99.90
11132;DHT22;5620;53.570;9.718;2023-06-22T11:23:00;42.40;99.90
11132;DHT22;5620;53.570;9.718;2023-06-22T11:25:26;43.20;99.90
11132;DHT22;5620;53.570;9.718;2023-06-22T11:27:52;44.30;99.90
11132;DHT22;5620;53.570;9.718;2023-06-22T11:30:18;45.50;99.90
11132;DHT22;5620;53.570;9.718;2023-06-22T11:32:45;46.10;99.90
11132;DHT22;5620;53.570;9.718;2023-06-22T11:35:10;45.50;99.90
11132;DHT22;5620;53.570;9.718;2023-06-22T11:37:37;45.20;99.90
11132;DHT22;5620;53.570;9.718;2023-06-22T11:40:03;45.00;99.90
11132;DHT22;5620;53.570;9.718;2023-06-22T11:42:28;45.30;99.90
11132;DHT22;5620;53.570;9.718;2023-06-22T11:44:55;46.00;99.90
11132;DHT22;5620;53.570;9.718;2023-06-22T11:47:22;46.10;99.90
11132;DHT22;5620;53.570;9.718;2023-06-22T11:49:49;46.60;99.90
11132;DHT22;5620;53.570;9.718;2023-06-22T11:52:17;47.20;99.90
11132;DHT22;5620;53.570;9.718;2023-06-22T11:54:42;47.40;99.90
11132;DHT22;5620;53.570;9.718;2023-06-22T11:57:09;47.50;99.90
11132;DHT22;5620;53.570;9.718;2023-06-22T11:59:38;47.50;99.90
11132;DHT22;5620;53.570;9.718;2023-06-22T12:02:03;46.90;99.90
11132;DHT22;5620;53.570;9.718;2023-06-22T12:04:29;46.30;99.90
11132;DHT22;5620;53.570;9.718;2023-06-22T12:06:57;46.10;99.90
11132;DHT22;5620;53.570;9.718;2023-06-22T12:09:22;46.40;99.90
11132;DHT22;5620;53.570;9.718;2023-06-22T12:11:48;47.10;99.90
11132;DHT22;5620;53.570;9.718;2023-06-22T12:14:13;48.00;99.90
11132;DHT22;5620;53.570;9.718;2023-06-22T12:16:39;48.60;99.90
11132;DHT22;5620;53.570;9.718;2023-06-22T12:19:04;49.10;99.90
11132;DHT22;5620;53.570;9.718;2023-06-22T12:21:30;50.00;99.90
11132;DHT22;5620;53.570;9.718;2023-06-22T12:23:56;50.40;99.90
11132;DHT22;5620;53.570;9.718;2023-06-22T12:26:22;50.70;99.90
11132;DHT22;5620;53.570;9.718;2023-06-22T12:28:49;51.80;99.90
11132;DHT22;5620;53.570;9.718;2023-06-22T12:31:15;52.70;99.90
11132;DHT22;5620;53.570;9.718;2023-06-22T12:33:40;52.50;99.90
11132;DHT22;5620;53.570;9.718;2023-06-22T12:36:07;51.40;99.90
11132;DHT22;5620;53.570;9.718;2023-06-22T12:38:35;51.00;99.90
11132;DHT22;5620;53.570;9.718;2023-06-22T12:41:00;50.90;99.90
11132;DHT22;5620;53.570;9.718;2023-06-22T12:43:27;51.00;99.90
11132;DHT22;5620;53.570;9.718;2023-06-22T12:45:53;51.10;99.90
11132;DHT22;5620;53.570;9.718;2023-06-22T12:48:22;51.70;99.90
11132;DHT22;5620;53.570;9.718;2023-06-22T12:50:49;52.20;99.90
11132;DHT22;5620;53.570;9.718;2023-06-22T12:53:15;52.30;99.90
11132;DHT22;5620;53.570;9.718;2023-06-22T12:55:42;52.10;99.90
11132;DHT22;5620;53.570;9.718;2023-06-22T12:58:08;52.60;99.90
11132;DHT22;5620;53.570;9.718;2023-06-22T13:00:34;53.20;99.90
11132;DHT22;5620;53.570;9.718;2023-06-22T13:03:00;53.70;99.90
11132;DHT22;5620;53.570;9.718;2023-06-22T13:05:30;54.30;99.90
11132;DHT22;5620;53.570;9.718;2023-06-22T13:07:56;54.70;99.90
11132;DHT22;5620;53.570;9.718;2023-06-22T13:10:22;55.30;99.90
11132;DHT22;5620;53.570;9.718;2023-06-22T13:12:52;55.50;99.90
11132;DHT22;5620;53.570;9.718;2023-06-22T13:15:18;55.80;99.90
11132;DHT22;5620;53.570;9.718;2023-06-22T13:17:43;55.70;99.90
11132;DHT22;5620;53.570;9.718;2023-06-22T13:20:10;56.10;99.90
11132;DHT22;5620;53.570;9.718;2023-06-22T13:22:41;56.60;99.90
11132;DHT22;5620;53.570;9.718;2023-06-22T13:25:07;55.70;99.90
11132;DHT22;5620;53.570;9.718;2023-06-22T13:27:33;54.20;99.90
11132;DHT22;5620;53.570;9.718;2023-06-22T13:29:58;53.00;99.90
11132;DHT22;5620;53.570;9.718;2023-06-22T13:32:26;52.00;99.90
11132;DHT22;5620;53.570;9.718;2023-06-22T13:34:53;53.10;99.90
11132;DHT22;5620;53.570;9.718;2023-06-22T13:37:19;54.50;99.90
11132;DHT22;5620;53.570;9.718;2023-06-22T13:39:44;55.70;99.90
11132;DHT22;5620;53.570;9.718;2023-06-22T13:42:10;56.00;99.90
11132;DHT22;5620;53.570;9.718;2023-06-22T13:44:35;54.50;99.90
11132;DHT22;5620;53.570;9.718;2023-06-22T13:47:02;51.90;99.90
11132;DHT22;5620;53.570;9.718;2023-06-22T13:49:28;49.40;99.90
11132;DHT22;5620;53.570;9.718;2023-06-22T13:51:55;47.80;99.90
11132;DHT22;5620;53.570;9.718;2023-06-22T13:54:21;46.90;99.90
11132;DHT22;5620;53.570;9.718;2023-06-22T13:56:48;45.60;99.90
11132;DHT22;5620;53.570;9.718;2023-06-22T13:59:14;44.30;99.90
11132;DHT22;5620;53.570;9.718;2023-06-22T14:01:40;43.00;99.90
11132;DHT22;5620;53.570;9.718;2023-06-22T14:04:07;41.80;99.90
11132;DHT22;5620;53.570;9.718;2023-06-22T14:06:33;41.30;99.90
11132;DHT22;5620;53.570;9.718;2023-06-22T14:08:58;41.00;99.90
11132;DHT22;5620;53.570;9.718;2023-06-22T14:11:25;40.80;99.90
11132;DHT22;5620;53.570;9.718;2023-06-22T14:13:52;40.20;99.90
11132;DHT22;5620;53.570;9.718;2023-06-22T14:16:20;39.60;99.90
11132;DHT22;5620;53.570;9.718;2023-06-22T14:18:45;39.30;99.90
11132;DHT22;5620;53.570;9.718;2023-06-22T14:21:12;39.20;99.90
11132;DHT22;5620;53.570;9.718;2023-06-22T14:23:38;39.00;99.90
11132;DHT22;5620;53.570;9.718;2023-06-22T14:26:04;38.60;99.90
11132;DHT22;5620;53.570;9.718;2023-06-22T14:28:31;38.20;99.90
11132;DHT22;5620;53.570;9.718;2023-06-22T14:30:57;37.80;99.90
11132;DHT22;5620;53.570;9.718;2023-06-22T14:33:24;37.50;99.90
11132;DHT22;5620;53.570;9.718;2023-06-22T14:35:49;37.10;99.90
11132;DHT22;5620;53.570;9.718;2023-06-22T14:38:15;36.70;99.90
11132;DHT22;5620;53.570;9.718;2023-06-22T14:40:42;36.40;99.90
11132;DHT22;5620;53.570;9.718;2023-06-22T14:43:07;36.00;99.90
11132;DHT22;5620;53.570;9.718;2023-06-22T14:45:33;35.50;99.90
11132;DHT22;5620;53.570;9.718;2023-06-22T14:47:58;35.00;99.90
11132;DHT22;5620;53.570;9.718;2023-06-22T14:50:24;34.50;99.90
11132;DHT22;5620;53.570;9.718;2023-06-22T14:52:49;34.00;99.90
11132;DHT22;5620;53.570;9.718;2023-06-22T14:55:18;33.40;99.90
11132;DHT22;5620;53.570;9.718;2023-06-22T14:57:43;32.80;99.90
11132;DHT22;5620;53.570;9.718;2023-06-22T15:00:10;32.30;99.90
11132;DHT22;5620;53.570;9.718;2023-06-22T15:02:36;31.70;1.00
11132;DHT22;5620;53.570;9.718;2023-06-22T15:05:03;31.30;1.00
11132;DHT22;5620;53.570;9.718;2023-06-22T15:07:30;30.90;1.00
11132;DHT22;5620;53.570;9.718;2023-06-22T15:09:55;30.50;1.00
11132;DHT22;5620;53.570;9.718;2023-06-22T15:12:21;30.30;1.00
11132;DHT22;5620;53.570;9.718;2023-06-22T15:14:47;30.00;1.00
11132;DHT22;5620;53.570;9.718;2023-06-22T15:17:12;29.90;1.00
11132;DHT22;5620;53.570;9.718;2023-06-22T15:19:43;29.70;1.00
11132;DHT22;5620;53.570;9.718;2023-06-22T15:22:10;29.50;1.00
11132;DHT22;5620;53.570;9.718;2023-06-22T15:24:38;29.40;1.00
11132;DHT22;5620;53.570;9.718;2023-06-22T15:27:05;29.40;1.00
11132;DHT22;5620;53.570;9.718;2023-06-22T15:29:31;29.40;1.00
11132;DHT22;5620;53.570;9.718;2023-06-22T15:31:56;29.40;1.00
11132;DHT22;5620;53.570;9.718;2023-06-22T15:34:23;29.40;1.00
11132;DHT22;5620;53.570;9.718;2023-06-22T15:36:50;29.40;1.00
11132;DHT22;5620;53.570;9.718;2023-06-22T15:39:16;29.40;1.00
11132;DHT22;5620;53.570;9.718;2023-06-22T15:41:41;29.40;1.00
11132;DHT22;5620;53.570;9.718;2023-06-22T15:44:08;29.50;1.00
11132;DHT22;5620;53.570;9.718;2023-06-22T15:46:34;29.40;1.00
11132;DHT22;5620;53.570;9.718;2023-06-22T15:48:59;29.20;1.00
11132;DHT22;5620;53.570;9.718;2023-06-22T15:51:26;29.10;1.00
11132;DHT22;5620;53.570;9.718;2023-06-22T15:53:53;29.00;1.00
11132;DHT22;5620;53.570;9.718;2023-06-22T15:56:20;28.90;1.00
11132;DHT22;5620;53.570;9.718;2023-06-22T15:58:47;28.90;1.00